sensor_id;sensor_type;location;lat;lon;timestamp;P1;durP1;ratioP1;P2;durP2;ratioP2
44197;SDS011;30157;55.512;37.764;2023-05-10T00:01:32;18.80;;;9.85;;
44197;SDS011;30157;55.512;37.764;2023-05-10T00:03:58;18.10;;;9.52;;
44197;SDS011;30157;55.512;37.764;2023-05-10T00:06:23;17.70;;;10.75;;
44197;SDS011;30157;55.512;37.764;2023-05-10T00:08:49;18.85;;;10.25;;
44197;SDS011;30157;55.512;37.764;2023-05-10T00:11:15;17.52;;;10.00;;
44197;SDS011;30157;55.512;37.764;2023-05-10T00:13:40;19.58;;;10.02;;
44197;SDS011;30157;55.512;37.764;2023-05-10T00:16:06;19.10;;;10.18;;
44197;SDS011;30157;55.512;37.764;2023-05-10T00:18:32;16.83;;;9.48;;
44197;SDS011;30157;55.512;37.764;2023-05-10T00:20:57;17.77;;;9.25;;
44197;SDS011;30157;55.512;37.764;2023-05-10T00:23:23;18.45;;;9.23;;
44197;SDS011;30157;55.512;37.764;2023-05-10T00:25:49;15.88;;;9.43;;
44197;SDS011;30157;55.512;37.764;2023-05-10T00:28:15;23.23;;;9.25;;
44197;SDS011;30157;55.512;37.764;2023-05-10T00:30:40;19.50;;;9.63;;
44197;SDS011;30157;55.512;37.764;2023-05-10T00:33:06;15.52;;;9.55;;
44197;SDS011;30157;55.512;37.764;2023-05-10T00:35:32;16.80;;;9.05;;
44197;SDS011;30157;55.512;37.764;2023-05-10T00:37:57;16.60;;;9.38;;
44197;SDS011;30157;55.512;37.764;2023-05-10T00:40:23;18.05;;;10.27;;
44197;SDS011;30157;55.512;37.764;2023-05-10T00:42:53;15.85;;;9.18;;
44197;SDS011;30157;55.512;37.764;2023-05-10T00:45:20;20.60;;;9.65;;
44197;SDS011;30157;55.512;37.764;2023-05-10T00:47:45;16.60;;;9.32;;
44197;SDS011;30157;55.512;37.764;2023-05-10T00:50:12;17.52;;;9.55;;
44197;SDS011;30157;55.512;37.764;2023-05-10T00:52:38;18.45;;;8.73;;
44197;SDS011;30157;55.512;37.764;2023-05-10T00:55:04;17.80;;;9.45;;
44197;SDS011;30157;55.512;37.764;2023-05-10T00:57:31;17.77;;;9.75;;
44197;SDS011;30157;55.512;37.764;2023-05-10T00:59:57;17.33;;;9.57;;
44197;SDS011;30157;55.512;37.764;2023-05-10T01:02:24;15.77;;;9.52;;
44197;SDS011;30157;55.512;37.764;2023-05-10T01:04:50;17.23;;;9.45;;
44197;SDS011;30157;55.512;37.764;2023-05-10T01:07:17;16.83;;;9.60;;
44197;SDS011;30157;55.512;37.764;2023-05-10T01:09:42;15.88;;;9.18;;
44197;SDS011;30157;55.512;37.764;2023-05-10T01:12:10;15.68;;;9.57;;
44197;SDS011;30157;55.512;37.764;2023-05-10T01:14:36;18.30;;;10.15;;
44197;SDS011;30157;55.512;37.764;2023-05-10T01:17:02;18.33;;;9.10;;
44197;SDS011;30157;55.512;37.764;2023-05-10T01:19:30;17.85;;;9.20;;
44197;SDS011;30157;55.512;37.764;2023-05-10T01:27:42;14.88;;;9.73;;
44197;SDS011;30157;55.512;37.764;2023-05-10T01:38:57;15.98;;;9.48;;
44197;SDS011;30157;55.512;37.764;2023-05-10T01:44:16;14.75;;;9.23;;
44197;SDS011;30157;55.512;37.764;2023-05-10T01:46:45;16.35;;;9.55;;
44197;SDS011;30157;55.512;37.764;2023-05-10T01:49:23;19.00;;;10.00;;
44197;SDS011;30157;55.512;37.764;2023-05-10T01:51:53;17.50;;;9.30;;
44197;SDS011;30157;55.512;37.764;2023-05-10T01:54:24;22.45;;;10.48;;
44197;SDS011;30157;55.512;37.764;2023-05-10T01:56:52;16.80;;;9.65;;
44197;SDS011;30157;55.512;37.764;2023-05-10T01:59:25;18.55;;;9.55;;
44197;SDS011;30157;55.512;37.764;2023-05-10T02:01:55;17.38;;;10.60;;
44197;SDS011;30157;55.512;37.764;2023-05-10T02:04:24;17.60;;;9.50;;
44197;SDS011;30157;55.512;37.764;2023-05-10T02:06:51;17.63;;;9.98;;
44197;SDS011;30157;55.512;37.764;2023-05-10T02:09:18;17.38;;;10.32;;
44197;SDS011;30157;55.512;37.764;2023-05-10T02:11:45;14.93;;;9.82;;
44197;SDS011;30157;55.512;37.764;2023-05-10T02:14:14;19.33;;;9.80;;
44197;SDS011;30157;55.512;37.764;2023-05-10T02:16:41;18.42;;;10.73;;
44197;SDS011;30157;55.512;37.764;2023-05-10T02:19:08;21.38;;;10.43;;
44197;SDS011;30157;55.512;37.764;2023-05-10T02:21:57;17.45;;;9.88;;
44197;SDS011;30157;55.512;37.764;2023-05-10T02:24:24;19.05;;;9.95;;
44197;SDS011;30157;55.512;37.764;2023-05-10T02:26:53;19.48;;;9.95;;
44197;SDS011;30157;55.512;37.764;2023-05-10T02:29:21;15.88;;;10.02;;
44197;SDS011;30157;55.512;37.764;2023-05-10T02:31:53;18.17;;;10.23;;
44197;SDS011;30157;55.512;37.764;2023-05-10T02:34:23;15.52;;;10.05;;
44197;SDS011;30157;55.512;37.764;2023-05-10T02:36:52;22.63;;;9.95;;
44197;SDS011;30157;55.512;37.764;2023-05-10T02:39:19;17.95;;;9.95;;
44197;SDS011;30157;55.512;37.764;2023-05-10T02:41:46;18.48;;;10.15;;
44197;SDS011;30157;55.512;37.764;2023-05-10T02:44:14;16.80;;;9.50;;
44197;SDS011;30157;55.512;37.764;2023-05-10T02:46:42;14.82;;;10.05;;
44197;SDS011;30157;55.512;37.764;2023-05-10T02:49:08;19.88;;;10.85;;
44197;SDS011;30157;55.512;37.764;2023-05-10T02:51:35;16.73;;;10.48;;
44197;SDS011;30157;55.512;37.764;2023-05-10T02:54:15;17.17;;;10.07;;
44197;SDS011;30157;55.512;37.764;2023-05-10T02:56:50;17.15;;;9.73;;
44197;SDS011;30157;55.512;37.764;2023-05-10T02:59:19;19.20;;;10.13;;
44197;SDS011;30157;55.512;37.764;2023-05-10T03:01:44;17.98;;;10.05;;
44197;SDS011;30157;55.512;37.764;2023-05-10T03:04:11;17.85;;;10.07;;
44197;SDS011;30157;55.512;37.764;2023-05-10T03:06:37;19.02;;;10.07;;
44197;SDS011;30157;55.512;37.764;2023-05-10T03:09:03;17.00;;;9.88;;
44197;SDS011;30157;55.512;37.764;2023-05-10T03:14:16;18.75;;;9.45;;
44197;SDS011;30157;55.512;37.764;2023-05-10T03:16:56;15.93;;;9.25;;
44197;SDS011;30157;55.512;37.764;2023-05-10T03:20:02;22.58;;;10.15;;
44197;SDS011;30157;55.512;37.764;2023-05-10T03:22:30;16.50;;;10.57;;
44197;SDS011;30157;55.512;37.764;2023-05-10T03:25:00;15.30;;;9.50;;
44197;SDS011;30157;55.512;37.764;2023-05-10T03:27:37;20.23;;;10.70;;
44197;SDS011;30157;55.512;37.764;2023-05-10T03:30:07;21.80;;;11.85;;
44197;SDS011;30157;55.512;37.764;2023-05-10T03:32:36;18.73;;;11.50;;
44197;SDS011;30157;55.512;37.764;2023-05-10T03:35:09;22.23;;;12.07;;
44197;SDS011;30157;55.512;37.764;2023-05-10T03:37:36;17.40;;;11.07;;
44197;SDS011;30157;55.512;37.764;2023-05-10T03:40:02;17.85;;;11.68;;
44197;SDS011;30157;55.512;37.764;2023-05-10T03:42:32;22.02;;;11.80;;
44197;SDS011;30157;55.512;37.764;2023-05-10T03:44:57;22.02;;;11.52;;
44197;SDS011;30157;55.512;37.764;2023-05-10T03:47:24;21.58;;;11.95;;
44197;SDS011;30157;55.512;37.764;2023-05-10T03:49:49;21.25;;;11.07;;
44197;SDS011;30157;55.512;37.764;2023-05-10T03:52:15;18.67;;;11.07;;
44197;SDS011;30157;55.512;37.764;2023-05-10T03:54:41;24.20;;;11.68;;
44197;SDS011;30157;55.512;37.764;2023-05-10T03:57:06;17.27;;;11.00;;
44197;SDS011;30157;55.512;37.764;2023-05-10T03:59:33;20.92;;;11.27;;
44197;SDS011;30157;55.512;37.764;2023-05-10T04:01:59;22.10;;;11.00;;
44197;SDS011;30157;55.512;37.764;2023-05-10T04:04:24;18.95;;;10.93;;
44197;SDS011;30157;55.512;37.764;2023-05-10T04:06:50;22.38;;;11.40;;
44197;SDS011;30157;55.512;37.764;2023-05-10T04:09:16;23.77;;;11.57;;
44197;SDS011;30157;55.512;37.764;2023-05-10T04:11:42;19.50;;;11.23;;
44197;SDS011;30157;55.512;37.764;2023-05-10T04:14:08;17.52;;;10.52;;
44197;SDS011;30157;55.512;37.764;2023-05-10T04:16:34;16.73;;;9.70;;
44197;SDS011;30157;55.512;37.764;2023-05-10T04:19:00;15.38;;;8.95;;
44197;SDS011;30157;55.512;37.764;2023-05-10T04:21:26;16.40;;;8.60;;
44197;SDS011;30157;55.512;37.764;2023-05-10T04:23:51;14.45;;;8.80;;
44197;SDS011;30157;55.512;37.764;2023-05-10T04:26:17;14.30;;;7.82;;
44197;SDS011;30157;55.512;37.764;2023-05-10T04:28:43;14.50;;;8.55;;
44197;SDS011;30157;55.512;37.764;2023-05-10T04:31:09;12.10;;;7.50;;
44197;SDS011;30157;55.512;37.764;2023-05-10T04:33:35;18.33;;;7.63;;
44197;SDS011;30157;55.512;37.764;2023-05-10T04:36:02;14.50;;;7.80;;
44197;SDS011;30157;55.512;37.764;2023-05-10T04:38:28;13.40;;;7.13;;
44197;SDS011;30157;55.512;37.764;2023-05-10T04:40:54;12.88;;;7.32;;
44197;SDS011;30157;55.512;37.764;2023-05-10T04:43:28;12.25;;;7.63;;
44197;SDS011;30157;55.512;37.764;2023-05-10T04:45:56;14.65;;;6.93;;
44197;SDS011;30157;55.512;37.764;2023-05-10T04:48:22;12.35;;;7.32;;
44197;SDS011;30157;55.512;37.764;2023-05-10T04:50:47;10.95;;;6.63;;
44197;SDS011;30157;55.512;37.764;2023-05-10T04:53:13;14.05;;;7.60;;
44197;SDS011;30157;55.512;37.764;2023-05-10T04:55:59;11.82;;;6.53;;
44197;SDS011;30157;55.512;37.764;2023-05-10T04:58:25;13.18;;;6.88;;
44197;SDS011;30157;55.512;37.764;2023-05-10T05:00:51;13.45;;;7.30;;
44197;SDS011;30157;55.512;37.764;2023-05-10T05:03:16;10.02;;;6.85;;
44197;SDS011;30157;55.512;37.764;2023-05-10T05:05:43;11.52;;;7.07;;
44197;SDS011;30157;55.512;37.764;2023-05-10T05:08:09;14.95;;;7.00;;
44197;SDS011;30157;55.512;37.764;2023-05-10T05:10:35;11.38;;;6.43;;
44197;SDS011;30157;55.512;37.764;2023-05-10T05:13:01;9.90;;;6.47;;
44197;SDS011;30157;55.512;37.764;2023-05-10T05:15:26;12.32;;;6.95;;
44197;SDS011;30157;55.512;37.764;2023-05-10T05:17:53;15.35;;;6.72;;
44197;SDS011;30157;55.512;37.764;2023-05-10T05:20:18;9.98;;;6.20;;
44197;SDS011;30157;55.512;37.764;2023-05-10T05:22:44;13.27;;;6.40;;
44197;SDS011;30157;55.512;37.764;2023-05-10T05:25:10;9.35;;;5.72;;
44197;SDS011;30157;55.512;37.764;2023-05-10T05:27:37;13.30;;;6.15;;
44197;SDS011;30157;55.512;37.764;2023-05-10T05:30:02;12.13;;;6.70;;
44197;SDS011;30157;55.512;37.764;2023-05-10T05:32:30;10.13;;;5.85;;
44197;SDS011;30157;55.512;37.764;2023-05-10T05:34:55;11.27;;;6.43;;
44197;SDS011;30157;55.512;37.764;2023-05-10T05:37:21;10.18;;;6.22;;
44197;SDS011;30157;55.512;37.764;2023-05-10T05:39:47;10.40;;;6.40;;
44197;SDS011;30157;55.512;37.764;2023-05-10T05:42:13;9.95;;;6.35;;
44197;SDS011;30157;55.512;37.764;2023-05-10T05:44:41;8.70;;;6.15;;
44197;SDS011;30157;55.512;37.764;2023-05-10T05:47:07;9.68;;;6.20;;
44197;SDS011;30157;55.512;37.764;2023-05-10T05:49:33;9.13;;;5.53;;
44197;SDS011;30157;55.512;37.764;2023-05-10T05:51:59;10.13;;;6.15;;
44197;SDS011;30157;55.512;37.764;2023-05-10T05:54:29;9.13;;;5.43;;
44197;SDS011;30157;55.512;37.764;2023-05-10T05:56:59;9.95;;;6.18;;
44197;SDS011;30157;55.512;37.764;2023-05-10T05:59:26;11.88;;;5.50;;
44197;SDS011;30157;55.512;37.764;2023-05-10T06:01:51;7.45;;;5.72;;
44197;SDS011;30157;55.512;37.764;2023-05-10T06:04:18;9.18;;;5.85;;
44197;SDS011;30157;55.512;37.764;2023-05-10T06:06:44;9.63;;;5.22;;
44197;SDS011;30157;55.512;37.764;2023-05-10T06:09:10;9.10;;;5.65;;
44197;SDS011;30157;55.512;37.764;2023-05-10T06:11:36;12.77;;;5.88;;
44197;SDS011;30157;55.512;37.764;2023-05-10T06:14:03;12.65;;;6.55;;
44197;SDS011;30157;55.512;37.764;2023-05-10T06:16:32;10.45;;;5.10;;
44197;SDS011;30157;55.512;37.764;2023-05-10T06:18:58;7.70;;;5.72;;
44197;SDS011;30157;55.512;37.764;2023-05-10T06:21:24;11.90;;;5.82;;
44197;SDS011;30157;55.512;37.764;2023-05-10T06:23:49;7.28;;;5.10;;
44197;SDS011;30157;55.512;37.764;2023-05-10T06:26:15;8.95;;;5.22;;
44197;SDS011;30157;55.512;37.764;2023-05-10T06:28:41;7.78;;;4.68;;
44197;SDS011;30157;55.512;37.764;2023-05-10T06:31:07;10.35;;;5.18;;
44197;SDS011;30157;55.512;37.764;2023-05-10T06:33:33;8.10;;;4.93;;
44197;SDS011;30157;55.512;37.764;2023-05-10T06:35:59;11.52;;;4.40;;
44197;SDS011;30157;55.512;37.764;2023-05-10T06:38:25;8.20;;;4.53;;
44197;SDS011;30157;55.512;37.764;2023-05-10T06:40:51;5.93;;;3.92;;
44197;SDS011;30157;55.512;37.764;2023-05-10T06:43:17;9.50;;;4.10;;
44197;SDS011;30157;55.512;37.764;2023-05-10T06:45:43;7.85;;;4.10;;
44197;SDS011;30157;55.512;37.764;2023-05-10T06:48:08;7.80;;;4.10;;
44197;SDS011;30157;55.512;37.764;2023-05-10T06:50:34;8.05;;;4.22;;
44197;SDS011;30157;55.512;37.764;2023-05-10T06:53:00;7.43;;;3.65;;
44197;SDS011;30157;55.512;37.764;2023-05-10T06:55:27;6.78;;;3.60;;
44197;SDS011;30157;55.512;37.764;2023-05-10T06:57:53;6.38;;;4.03;;
44197;SDS011;30157;55.512;37.764;2023-05-10T07:00:19;5.55;;;3.45;;
44197;SDS011;30157;55.512;37.764;2023-05-10T07:02:45;9.45;;;3.28;;
44197;SDS011;30157;55.512;37.764;2023-05-10T07:05:11;5.40;;;3.30;;
44197;SDS011;30157;55.512;37.764;2023-05-10T07:07:37;5.90;;;3.05;;
44197;SDS011;30157;55.512;37.764;2023-05-10T07:10:03;5.82;;;3.33;;
44197;SDS011;30157;55.512;37.764;2023-05-10T07:12:30;2.13;;;1.70;;
44197;SDS011;30157;55.512;37.764;2023-05-10T07:14:55;2.17;;;1.58;;
44197;SDS011;30157;55.512;37.764;2023-05-10T07:17:21;3.25;;;1.48;;
44197;SDS011;30157;55.512;37.764;2023-05-10T07:19:47;2.97;;;1.55;;
44197;SDS011;30157;55.512;37.764;2023-05-10T07:22:12;4.65;;;1.65;;
44197;SDS011;30157;55.512;37.764;2023-05-10T07:24:38;3.65;;;1.90;;
44197;SDS011;30157;55.512;37.764;2023-05-10T07:27:03;3.53;;;1.80;;
44197;SDS011;30157;55.512;37.764;2023-05-10T07:29:29;4.45;;;1.70;;
44197;SDS011;30157;55.512;37.764;2023-05-10T07:31:55;3.15;;;1.50;;
44197;SDS011;30157;55.512;37.764;2023-05-10T07:34:21;3.35;;;1.70;;
44197;SDS011;30157;55.512;37.764;2023-05-10T07:36:47;2.55;;;1.58;;
44197;SDS011;30157;55.512;37.764;2023-05-10T07:39:12;3.25;;;1.70;;
44197;SDS011;30157;55.512;37.764;2023-05-10T07:41:38;3.58;;;1.60;;
44197;SDS011;30157;55.512;37.764;2023-05-10T07:44:05;3.50;;;1.65;;
44197;SDS011;30157;55.512;37.764;2023-05-10T07:46:31;3.28;;;1.58;;
44197;SDS011;30157;55.512;37.764;2023-05-10T07:48:57;3.15;;;1.55;;
44197;SDS011;30157;55.512;37.764;2023-05-10T07:51:23;2.30;;;1.60;;
44197;SDS011;30157;55.512;37.764;2023-05-10T07:53:48;2.63;;;1.40;;
44197;SDS011;30157;55.512;37.764;2023-05-10T07:58:47;2.10;;;1.40;;
44197;SDS011;30157;55.512;37.764;2023-05-10T08:01:13;1.63;;;1.30;;
44197;SDS011;30157;55.512;37.764;2023-05-10T08:03:38;3.20;;;1.40;;
44197;SDS011;30157;55.512;37.764;2023-05-10T08:06:04;2.53;;;1.20;;
44197;SDS011;30157;55.512;37.764;2023-05-10T08:08:31;2.20;;;1.30;;
44197;SDS011;30157;55.512;37.764;2023-05-10T08:10:56;1.77;;;1.30;;
44197;SDS011;30157;55.512;37.764;2023-05-10T08:13:22;5.00;;;1.60;;
44197;SDS011;30157;55.512;37.764;2023-05-10T08:15:48;4.85;;;1.48;;
44197;SDS011;30157;55.512;37.764;2023-05-10T08:18:13;2.13;;;1.52;;
44197;SDS011;30157;55.512;37.764;2023-05-10T08:20:39;3.67;;;1.50;;
44197;SDS011;30157;55.512;37.764;2023-05-10T08:23:05;2.50;;;1.55;;
44197;SDS011;30157;55.512;37.764;2023-05-10T08:25:31;2.28;;;1.77;;
44197;SDS011;30157;55.512;37.764;2023-05-10T08:27:57;2.35;;;1.55;;
44197;SDS011;30157;55.512;37.764;2023-05-10T08:30:22;2.45;;;1.52;;
44197;SDS011;30157;55.512;37.764;2023-05-10T08:32:48;3.00;;;1.60;;
44197;SDS011;30157;55.512;37.764;2023-05-10T08:35:15;2.15;;;1.60;;
44197;SDS011;30157;55.512;37.764;2023-05-10T08:37:41;4.95;;;1.73;;
44197;SDS011;30157;55.512;37.764;2023-05-10T08:40:06;11.98;;;2.63;;
44197;SDS011;30157;55.512;37.764;2023-05-10T08:42:36;6.13;;;1.92;;
44197;SDS011;30157;55.512;37.764;2023-05-10T08:45:06;5.07;;;1.85;;
44197;SDS011;30157;55.512;37.764;2023-05-10T08:47:33;3.10;;;1.90;;
44197;SDS011;30157;55.512;37.764;2023-05-10T08:50:02;3.25;;;1.85;;
44197;SDS011;30157;55.512;37.764;2023-05-10T08:52:30;3.58;;;1.77;;
44197;SDS011;30157;55.512;37.764;2023-05-10T08:54:58;3.13;;;1.95;;
44197;SDS011;30157;55.512;37.764;2023-05-10T08:57:23;4.95;;;2.17;;
44197;SDS011;30157;55.512;37.764;2023-05-10T08:59:50;3.08;;;1.55;;
44197;SDS011;30157;55.512;37.764;2023-05-10T09:02:15;3.65;;;1.90;;
44197;SDS011;30157;55.512;37.764;2023-05-10T09:04:43;3.58;;;1.90;;
44197;SDS011;30157;55.512;37.764;2023-05-10T09:07:09;3.47;;;1.80;;
44197;SDS011;30157;55.512;37.764;2023-05-10T09:09:36;2.97;;;1.70;;
44197;SDS011;30157;55.512;37.764;2023-05-10T09:12:02;3.55;;;1.40;;
44197;SDS011;30157;55.512;37.764;2023-05-10T09:14:28;2.50;;;1.40;;
44197;SDS011;30157;55.512;37.764;2023-05-10T09:16:54;2.50;;;1.40;;
44197;SDS011;30157;55.512;37.764;2023-05-10T09:19:20;2.10;;;1.23;;
44197;SDS011;30157;55.512;37.764;2023-05-10T09:21:46;3.30;;;1.55;;
44197;SDS011;30157;55.512;37.764;2023-05-10T09:24:12;2.55;;;1.50;;
44197;SDS011;30157;55.512;37.764;2023-05-10T09:26:47;2.08;;;1.40;;
44197;SDS011;30157;55.512;37.764;2023-05-10T09:29:14;2.80;;;1.40;;
44197;SDS011;30157;55.512;37.764;2023-05-10T09:31:58;2.40;;;1.35;;
44197;SDS011;30157;55.512;37.764;2023-05-10T09:34:32;1.70;;;1.30;;
44197;SDS011;30157;55.512;37.764;2023-05-10T09:37:00;2.63;;;1.60;;
44197;SDS011;30157;55.512;37.764;2023-05-10T09:39:34;3.05;;;1.88;;
44197;SDS011;30157;55.512;37.764;2023-05-10T09:42:02;6.10;;;2.30;;
44197;SDS011;30157;55.512;37.764;2023-05-10T09:44:34;3.85;;;1.40;;
44197;SDS011;30157;55.512;37.764;2023-05-10T09:47:01;2.95;;;1.63;;
44197;SDS011;30157;55.512;37.764;2023-05-10T09:49:27;5.22;;;1.65;;
44197;SDS011;30157;55.512;37.764;2023-05-10T09:52:05;2.15;;;1.60;;
44197;SDS011;30157;55.512;37.764;2023-05-10T09:54:32;2.47;;;1.73;;
44197;SDS011;30157;55.512;37.764;2023-05-10T09:57:00;3.25;;;1.50;;
44197;SDS011;30157;55.512;37.764;2023-05-10T09:59:27;3.40;;;1.60;;
44197;SDS011;30157;55.512;37.764;2023-05-10T10:01:57;2.55;;;1.70;;
44197;SDS011;30157;55.512;37.764;2023-05-10T10:04:25;2.03;;;1.40;;
44197;SDS011;30157;55.512;37.764;2023-05-10T10:06:58;2.25;;;1.40;;
44197;SDS011;30157;55.512;37.764;2023-05-10T10:09:28;2.60;;;1.70;;
44197;SDS011;30157;55.512;37.764;2023-05-10T10:11:54;2.80;;;1.55;;
44197;SDS011;30157;55.512;37.764;2023-05-10T10:14:21;1.95;;;1.38;;
44197;SDS011;30157;55.512;37.764;2023-05-10T10:16:51;3.33;;;1.65;;
44197;SDS011;30157;55.512;37.764;2023-05-10T10:19:21;3.17;;;1.70;;
44197;SDS011;30157;55.512;37.764;2023-05-10T10:21:47;2.83;;;1.80;;
44197;SDS011;30157;55.512;37.764;2023-05-10T10:24:14;3.65;;;1.73;;
44197;SDS011;30157;55.512;37.764;2023-05-10T10:26:41;2.10;;;1.50;;
44197;SDS011;30157;55.512;37.764;2023-05-10T10:34:47;3.58;;;1.85;;
44197;SDS011;30157;55.512;37.764;2023-05-10T10:37:13;3.70;;;2.03;;
44197;SDS011;30157;55.512;37.764;2023-05-10T10:39:39;3.15;;;1.70;;
44197;SDS011;30157;55.512;37.764;2023-05-10T10:42:04;3.28;;;1.52;;
44197;SDS011;30157;55.512;37.764;2023-05-10T10:47:01;2.92;;;1.60;;
44197;SDS011;30157;55.512;37.764;2023-05-10T10:52:36;2.85;;;2.00;;
44197;SDS011;30157;55.512;37.764;2023-05-10T10:55:19;5.35;;;1.88;;
44197;SDS011;30157;55.512;37.764;2023-05-10T10:57:50;6.35;;;2.55;;
44197;SDS011;30157;55.512;37.764;2023-05-10T11:00:29;4.07;;;2.30;;
44197;SDS011;30157;55.512;37.764;2023-05-10T11:03:11;3.67;;;2.42;;
44197;SDS011;30157;55.512;37.764;2023-05-10T11:05:45;4.20;;;2.60;;
44197;SDS011;30157;55.512;37.764;2023-05-10T11:08:16;3.72;;;2.28;;
44197;SDS011;30157;55.512;37.764;2023-05-10T11:11:16;3.65;;;2.03;;
44197;SDS011;30157;55.512;37.764;2023-05-10T11:13:43;2.63;;;2.00;;
44197;SDS011;30157;55.512;37.764;2023-05-10T11:16:11;4.63;;;2.05;;
44197;SDS011;30157;55.512;37.764;2023-05-10T11:21:22;4.13;;;2.17;;
44197;SDS011;30157;55.512;37.764;2023-05-10T11:23:55;5.90;;;2.50;;
44197;SDS011;30157;55.512;37.764;2023-05-10T11:26:22;4.18;;;2.30;;
44197;SDS011;30157;55.512;37.764;2023-05-10T11:28:51;4.00;;;1.98;;
44197;SDS011;30157;55.512;37.764;2023-05-10T11:31:20;4.38;;;2.22;;
44197;SDS011;30157;55.512;37.764;2023-05-10T11:33:47;5.10;;;2.30;;
44197;SDS011;30157;55.512;37.764;2023-05-10T11:36:18;3.63;;;2.40;;
44197;SDS011;30157;55.512;37.764;2023-05-10T11:38:45;4.93;;;2.63;;
44197;SDS011;30157;55.512;37.764;2023-05-10T11:41:12;4.63;;;2.78;;
44197;SDS011;30157;55.512;37.764;2023-05-10T11:43:38;4.03;;;2.53;;
44197;SDS011;30157;55.512;37.764;2023-05-10T11:46:05;3.97;;;2.30;;
44197;SDS011;30157;55.512;37.764;2023-05-10T11:48:32;4.38;;;2.25;;
44197;SDS011;30157;55.512;37.764;2023-05-10T11:50:58;4.32;;;2.88;;
44197;SDS011;30157;55.512;37.764;2023-05-10T11:53:26;3.88;;;2.67;;
44197;SDS011;30157;55.512;37.764;2023-05-10T11:55:52;3.67;;;2.33;;
44197;SDS011;30157;55.512;37.764;2023-05-10T11:58:18;2.92;;;1.65;;
44197;SDS011;30157;55.512;37.764;2023-05-10T12:00:44;3.47;;;1.98;;
44197;SDS011;30157;55.512;37.764;2023-05-10T12:03:11;3.03;;;1.90;;
44197;SDS011;30157;55.512;37.764;2023-05-10T12:05:37;2.92;;;2.15;;
44197;SDS011;30157;55.512;37.764;2023-05-10T12:08:13;3.38;;;1.80;;
44197;SDS011;30157;55.512;37.764;2023-05-10T12:10:39;4.05;;;2.00;;
44197;SDS011;30157;55.512;37.764;2023-05-10T12:13:05;2.97;;;2.00;;
44197;SDS011;30157;55.512;37.764;2023-05-10T12:15:35;3.35;;;1.83;;
44197;SDS011;30157;55.512;37.764;2023-05-10T12:18:01;3.45;;;2.10;;
44197;SDS011;30157;55.512;37.764;2023-05-10T12:20:28;5.38;;;2.60;;
44197;SDS011;30157;55.512;37.764;2023-05-10T12:22:54;4.03;;;1.92;;
44197;SDS011;30157;55.512;37.764;2023-05-10T12:25:23;2.80;;;1.75;;
44197;SDS011;30157;55.512;37.764;2023-05-10T12:27:56;4.30;;;2.20;;
44197;SDS011;30157;55.512;37.764;2023-05-10T12:32:49;5.10;;;2.55;;
44197;SDS011;30157;55.512;37.764;2023-05-10T12:35:16;2.90;;;1.77;;
44197;SDS011;30157;55.512;37.764;2023-05-10T12:37:43;3.25;;;2.30;;
44197;SDS011;30157;55.512;37.764;2023-05-10T12:40:09;5.82;;;3.13;;
44197;SDS011;30157;55.512;37.764;2023-05-10T12:42:37;3.83;;;2.38;;
44197;SDS011;30157;55.512;37.764;2023-05-10T12:45:04;3.22;;;2.63;;
44197;SDS011;30157;55.512;37.764;2023-05-10T12:47:32;6.72;;;2.60;;
44197;SDS011;30157;55.512;37.764;2023-05-10T12:49:59;5.03;;;2.40;;
44197;SDS011;30157;55.512;37.764;2023-05-10T12:52:26;3.90;;;2.35;;
44197;SDS011;30157;55.512;37.764;2023-05-10T12:54:52;5.70;;;2.65;;
44197;SDS011;30157;55.512;37.764;2023-05-10T12:57:19;3.85;;;2.25;;
44197;SDS011;30157;55.512;37.764;2023-05-10T12:59:46;2.90;;;2.10;;
44197;SDS011;30157;55.512;37.764;2023-05-10T13:02:12;5.00;;;2.33;;
44197;SDS011;30157;55.512;37.764;2023-05-10T13:04:38;5.40;;;2.33;;
44197;SDS011;30157;55.512;37.764;2023-05-10T13:07:08;3.25;;;2.15;;
44197;SDS011;30157;55.512;37.764;2023-05-10T13:09:34;3.55;;;2.17;;
44197;SDS011;30157;55.512;37.764;2023-05-10T13:12:00;2.88;;;1.92;;
44197;SDS011;30157;55.512;37.764;2023-05-10T13:14:27;3.97;;;2.50;;
44197;SDS011;30157;55.512;37.764;2023-05-10T13:16:53;3.97;;;2.53;;
44197;SDS011;30157;55.512;37.764;2023-05-10T13:19:19;3.65;;;2.08;;
44197;SDS011;30157;55.512;37.764;2023-05-10T13:21:45;3.83;;;2.30;;
44197;SDS011;30157;55.512;37.764;2023-05-10T13:24:11;2.95;;;2.10;;
44197;SDS011;30157;55.512;37.764;2023-05-10T13:26:39;5.38;;;2.08;;
44197;SDS011;30157;55.512;37.764;2023-05-10T13:29:06;2.80;;;1.90;;
44197;SDS011;30157;55.512;37.764;2023-05-10T13:31:32;3.88;;;2.03;;
44197;SDS011;30157;55.512;37.764;2023-05-10T13:33:58;6.15;;;2.40;;
44197;SDS011;30157;55.512;37.764;2023-05-10T13:36:24;4.75;;;2.60;;
44197;SDS011;30157;55.512;37.764;2023-05-10T13:38:49;3.40;;;2.30;;
44197;SDS011;30157;55.512;37.764;2023-05-10T13:41:15;2.80;;;2.03;;
44197;SDS011;30157;55.512;37.764;2023-05-10T13:43:41;3.53;;;2.00;;
44197;SDS011;30157;55.512;37.764;2023-05-10T13:46:07;2.80;;;1.90;;
44197;SDS011;30157;55.512;37.764;2023-05-10T13:48:32;2.78;;;1.85;;
44197;SDS011;30157;55.512;37.764;2023-05-10T13:50:58;2.80;;;2.15;;
44197;SDS011;30157;55.512;37.764;2023-05-10T13:53:24;3.55;;;1.90;;
44197;SDS011;30157;55.512;37.764;2023-05-10T13:55:50;3.38;;;1.92;;
44197;SDS011;30157;55.512;37.764;2023-05-10T13:58:16;2.85;;;2.30;;
44197;SDS011;30157;55.512;37.764;2023-05-10T14:00:41;8.32;;;6.18;;
44197;SDS011;30157;55.512;37.764;2023-05-10T14:03:07;5.70;;;2.72;;
44197;SDS011;30157;55.512;37.764;2023-05-10T14:05:36;4.00;;;2.10;;
44197;SDS011;30157;55.512;37.764;2023-05-10T14:08:01;4.25;;;2.20;;
44197;SDS011;30157;55.512;37.764;2023-05-10T14:10:27;3.75;;;2.75;;
44197;SDS011;30157;55.512;37.764;2023-05-10T14:12:53;2.95;;;2.15;;
44197;SDS011;30157;55.512;37.764;2023-05-10T14:15:19;8.90;;;2.22;;
44197;SDS011;30157;55.512;37.764;2023-05-10T14:17:45;4.60;;;2.83;;
44197;SDS011;30157;55.512;37.764;2023-05-10T14:20:11;6.90;;;4.03;;
44197;SDS011;30157;55.512;37.764;2023-05-10T14:22:36;2.67;;;1.90;;
44197;SDS011;30157;55.512;37.764;2023-05-10T14:25:02;3.17;;;2.30;;
44197;SDS011;30157;55.512;37.764;2023-05-10T14:27:30;5.07;;;2.00;;
44197;SDS011;30157;55.512;37.764;2023-05-10T14:29:56;3.38;;;2.22;;
44197;SDS011;30157;55.512;37.764;2023-05-10T14:32:22;2.65;;;2.03;;
44197;SDS011;30157;55.512;37.764;2023-05-10T14:34:48;3.67;;;2.25;;
44197;SDS011;30157;55.512;37.764;2023-05-10T14:37:14;3.15;;;2.20;;
44197;SDS011;30157;55.512;37.764;2023-05-10T14:39:40;8.30;;;2.55;;
44197;SDS011;30157;55.512;37.764;2023-05-10T14:42:07;10.27;;;2.47;;
44197;SDS011;30157;55.512;37.764;2023-05-10T14:44:33;6.75;;;2.83;;
44197;SDS011;30157;55.512;37.764;2023-05-10T14:46:59;6.82;;;2.92;;
44197;SDS011;30157;55.512;37.764;2023-05-10T14:49:25;8.48;;;3.25;;
44197;SDS011;30157;55.512;37.764;2023-05-10T14:51:51;8.98;;;3.80;;
44197;SDS011;30157;55.512;37.764;2023-05-10T14:54:18;3.40;;;2.50;;
44197;SDS011;30157;55.512;37.764;2023-05-10T14:56:43;3.80;;;2.72;;
44197;SDS011;30157;55.512;37.764;2023-05-10T14:59:09;6.80;;;3.05;;
44197;SDS011;30157;55.512;37.764;2023-05-10T15:01:35;2.95;;;2.00;;
44197;SDS011;30157;55.512;37.764;2023-05-10T15:04:03;3.67;;;2.00;;
44197;SDS011;30157;55.512;37.764;2023-05-10T15:06:33;5.00;;;2.00;;
44197;SDS011;30157;55.512;37.764;2023-05-10T15:09:01;4.35;;;2.13;;